Terminal Aerodrome Forecast
Issued by NWS

Home | Current Version | Previous Version | Text Only | Print | Product List | Glossary On
Versions: 1 2 3 4 5 6 7 8 9 10 11 12 13
000
FTUS43 KDTX 021810 AAA
TAFMBS
TAF AMD
KMBS 021810Z 0218/0318 24015G25KT P6SM SCT035 BKN100
      TEMPO 0218/0219 25020G30KT 2SM TSRA BKN035CB OVC070
     FM030100 22014G22KT P6SM BKN050 BKN120
      TEMPO 0301/0304 2SM TSRA BKN040CB OVC080
     FM030600 29010KT 6SM BR BKN030=

USA.gov is the U.S. government's official web portal to all federal, state and local government web resources and services.